Terminal Aerodrome Forecast
Issued by NWS Twin Cities, MN

Home | Current Version | Previous Version | Graphics & Text | Print | Product List | Glossary On
Versions: 1 2 3 4 5 6 7 8 9 10 11 12 13 14
875
FTUS43 KMPX 171120
TAFSTC
TAF
KSTC 171120Z 1712/1812 16006KT P6SM SKC
      TEMPO 1712/1713 5SM BR
     FM171800 21005KT P6SM SCT150
     FM180000 27007KT P6SM SCT150=

USA.gov is the U.S. government's official web portal to all federal, state and local government web resources and services.